createdAt,value
2017-12-24T00:00:53.932Z,94.89
2017-12-24T00:02:02.543Z,95.56
2017-12-24T00:03:11.154Z,95.36
2017-12-24T00:04:19.748Z,95.36
2017-12-24T00:05:28.354Z,95.56
2017-12-24T00:06:36.971Z,95.94
2017-12-24T00:07:45.564Z,95.36
2017-12-24T00:08:54.173Z,95.56
2017-12-24T00:10:02.785Z,95.56
2017-12-24T00:11:11.694Z,95.36
2017-12-24T00:12:20.312Z,95.65
2017-12-24T00:13:28.905Z,94.79
2017-12-24T00:14:37.765Z,95.36
2017-12-24T00:15:46.380Z,95.84
2017-12-24T00:16:54.975Z,96.03
2017-12-24T00:18:03.582Z,95.94
2017-12-24T00:19:12.194Z,95.94
2017-12-24T00:20:20.792Z,95.84
2017-12-24T00:21:29.387Z,95.94
2017-12-24T00:22:38.004Z,95.94
2017-12-24T00:23:46.606Z,96.22
2017-12-24T00:24:55.204Z,96.12
2017-12-24T00:26:03.812Z,96.22
2017-12-24T00:27:12.414Z,95.75
2017-12-24T00:28:21.026Z,96.12
2017-12-24T00:29:29.628Z,96.22
2017-12-24T00:30:38.222Z,96.31
2017-12-24T00:31:46.841Z,96.22
2017-12-24T00:32:55.443Z,96.51
2017-12-24T00:34:04.038Z,96.03
2017-12-24T00:35:12.654Z,96.22
2017-12-24T00:36:21.257Z,96.31
2017-12-24T00:37:30.150Z,96.22
2017-12-24T00:38:38.767Z,95.94
2017-12-24T00:39:47.380Z,95.94
2017-12-24T00:40:55.985Z,96.31
2017-12-24T00:42:04.648Z,96.41
2017-12-24T00:43:13.191Z,96.6
2017-12-24T00:44:21.805Z,96.79
2017-12-24T00:45:30.416Z,96.51
2017-12-24T00:46:39.008Z,96.89
2017-12-24T00:47:47.623Z,96.6
2017-12-24T00:48:56.495Z,97.17
2017-12-24T00:50:05.089Z,97.17
2017-12-24T00:51:13.696Z,96.98
2017-12-24T00:52:22.313Z,97.27
2017-12-24T00:53:30.904Z,97.17
2017-12-24T00:54:39.506Z,97.27
2017-12-24T00:55:48.107Z,97.17
2017-12-24T00:56:56.717Z,97.36
2017-12-24T00:58:05.328Z,97.46
2017-12-24T00:59:13.919Z,97.08
2017-12-24T01:00:22.525Z,96.6
2017-12-24T01:01:31.148Z,96.6
2017-12-24T01:02:39.741Z,96.51
2017-12-24T01:03:48.343Z,96.6
2017-12-24T01:04:56.960Z,96.7
2017-12-24T01:06:05.556Z,97.36
2017-12-24T01:07:14.153Z,97.17
2017-12-24T01:08:22.771Z,97.08
2017-12-24T01:09:31.378Z,97.17
2017-12-24T01:10:39.988Z,97.46
2017-12-24T01:11:48.581Z,97.27
2017-12-24T01:12:57.188Z,97.17
2017-12-24T01:14:05.802Z,96.98
2017-12-24T01:15:14.402Z,97.55
2017-12-24T01:16:22.995Z,97.36
2017-12-24T01:17:31.611Z,97.17
2017-12-24T01:18:40.472Z,97.65
2017-12-24T01:19:49.066Z,96.7
2017-12-24T01:20:57.680Z,96.7
2017-12-24T01:22:06.292Z,97.08
2017-12-24T01:23:14.883Z,96.7
2017-12-24T01:24:23.499Z,96.98
2017-12-24T01:25:32.368Z,96.41
2017-12-24T01:26:40.966Z,96.89
2017-12-24T01:27:49.834Z,96.31
2017-12-24T01:28:58.451Z,96.51
2017-12-24T01:30:07.043Z,96.12
2017-12-24T01:31:15.643Z,96.79
2017-12-24T01:32:24.256Z,96.31
2017-12-24T01:33:32.859Z,96.22
2017-12-24T01:34:41.457Z,96.03
2017-12-24T01:35:50.070Z,95.84
2017-12-24T01:36:58.676Z,96.41
2017-12-24T01:38:07.268Z,96.03
2017-12-24T01:39:15.878Z,96.22
2017-12-24T01:40:24.482Z,96.22
2017-12-24T01:41:33.094Z,96.12
2017-12-24T01:42:41.698Z,96.03
2017-12-24T01:43:50.292Z,96.03
2017-12-24T01:44:58.909Z,95.65
2017-12-24T01:46:07.511Z,96.12
2017-12-24T01:47:16.104Z,95.94
2017-12-24T01:48:24.721Z,95.56
2017-12-24T01:49:33.590Z,96.22
2017-12-24T01:50:42.188Z,96.12
2017-12-24T01:51:50.798Z,96.98
2017-12-24T01:52:59.409Z,96.03
2017-12-24T01:54:08.010Z,96.12
2017-12-24T01:55:16.611Z,95.84
2017-12-24T01:56:25.211Z,96.03
2017-12-24T01:57:33.822Z,96.03
2017-12-24T01:58:42.429Z,96.03
2017-12-24T01:59:51.022Z,96.03
2017-12-24T02:00:59.629Z,96.31
2017-12-24T02:02:08.241Z,96.98
2017-12-24T02:03:16.838Z,96.03
2017-12-24T02:04:25.444Z,96.22
2017-12-24T02:05:34.058Z,96.89
2017-12-24T02:06:42.650Z,96.79
2017-12-24T02:07:51.514Z,96.79
2017-12-24T02:09:00.379Z,96.79
2017-12-24T02:10:08.990Z,97.55
2017-12-24T02:11:17.596Z,97.55
2017-12-24T02:12:26.196Z,97.27
2017-12-24T02:13:34.799Z,97.17
2017-12-24T02:14:43.418Z,97.55
2017-12-24T02:15:52.008Z,96.7
2017-12-24T02:17:00.614Z,96.7
2017-12-24T02:18:09.226Z,96.6
2017-12-24T02:19:17.827Z,96.6
2017-12-24T02:20:26.426Z,96.79
2017-12-24T02:21:35.042Z,96.6
2017-12-24T02:22:43.644Z,96.89
2017-12-24T02:23:52.241Z,96.98
2017-12-24T02:25:00.853Z,97.55
2017-12-24T02:26:09.457Z,96.6
2017-12-24T02:27:18.055Z,96.89
2017-12-24T02:28:26.665Z,96.51
2017-12-24T02:29:35.281Z,97.08
2017-12-24T02:30:43.874Z,96.6
2017-12-24T02:31:52.485Z,97.17
2017-12-24T02:33:01.095Z,96.98
2017-12-24T02:34:09.699Z,97.17
2017-12-24T02:35:18.293Z,97.17
2017-12-24T02:36:26.910Z,97.65
2017-12-24T02:37:35.508Z,97.46
2017-12-24T02:38:44.115Z,97.27
2017-12-24T02:39:52.972Z,97.08
2017-12-24T02:41:01.583Z,97.36
2017-12-24T02:42:10.197Z,97.17
2017-12-24T02:43:18.790Z,97.17
2017-12-24T02:44:27.391Z,97.55
2017-12-24T02:45:36.009Z,97.46
2017-12-24T02:46:44.610Z,97.46
2017-12-24T02:47:53.468Z,97.65
2017-12-24T02:49:02.085Z,98.41
2017-12-24T02:50:10.954Z,98.41
2017-12-24T02:51:19.548Z,97.93
2017-12-24T02:52:28.164Z,98.32
2017-12-24T02:53:37.025Z,98.22
2017-12-24T02:54:45.639Z,98.41
2017-12-24T02:55:54.238Z,98.13
2017-12-24T02:57:02.837Z,98.03
2017-12-24T02:58:11.456Z,97.93
2017-12-24T02:59:20.057Z,97.84
2017-12-24T03:00:28.649Z,98.22
2017-12-24T03:01:37.263Z,98.13
2017-12-24T03:02:45.875Z,97.74
2017-12-24T03:03:54.464Z,98.03
2017-12-24T03:05:03.074Z,98.03
2017-12-24T03:06:11.687Z,98.03
2017-12-24T03:07:20.286Z,98.03
2017-12-24T03:08:28.892Z,98.13
2017-12-24T03:09:37.487Z,98.5
2017-12-24T03:10:46.100Z,97.74
2017-12-24T03:11:54.710Z,98.22
2017-12-24T03:13:03.557Z,98.03
2017-12-24T03:14:12.169Z,97.55
2017-12-24T03:15:21.038Z,98.69
2017-12-24T03:16:29.632Z,98.41
2017-12-24T03:17:38.241Z,98.6
2017-12-24T03:18:46.863Z,97.74
2017-12-24T03:19:55.454Z,98.03
2017-12-24T03:21:04.056Z,98.41
2017-12-24T03:22:12.666Z,98.69
2017-12-24T03:23:21.266Z,98.41
2017-12-24T03:24:29.864Z,98.13
2017-12-24T03:25:38.734Z,98.03
2017-12-24T03:26:47.338Z,98.03
2017-12-24T03:27:55.931Z,98.5
2017-12-24T03:29:04.550Z,98.69
2017-12-24T03:30:13.162Z,98.32
2017-12-24T03:31:22.018Z,98.41
2017-12-24T03:32:30.633Z,98.22
2017-12-24T03:33:39.505Z,98.41
2017-12-24T03:34:48.095Z,98.6
2017-12-24T03:35:56.703Z,98.6
2017-12-24T03:37:05.302Z,98.69
2017-12-24T03:38:13.915Z,98.98
2017-12-24T03:39:22.518Z,98.5
2017-12-24T03:40:31.116Z,98.41
2017-12-24T03:41:39.986Z,98.03
2017-12-24T03:42:48.597Z,98.22
2017-12-24T03:43:57.190Z,98.03
2017-12-24T03:45:05.801Z,98.69
2017-12-24T03:46:14.413Z,98.13
2017-12-24T03:47:23.009Z,98.69
2017-12-24T03:48:31.613Z,98.41
2017-12-24T03:49:40.227Z,98.5
2017-12-24T03:50:48.824Z,98.5
2017-12-24T03:51:57.697Z,98.88
2017-12-24T03:53:06.294Z,98.6
2017-12-24T03:54:14.900Z,98.69
2017-12-24T03:55:23.519Z,98.41
2017-12-24T03:56:32.110Z,98.41
2017-12-24T03:57:40.712Z,98.41
2017-12-24T03:58:49.327Z,98.41
2017-12-24T03:59:57.927Z,98.88
2017-12-24T04:01:06.526Z,98.41
2017-12-24T04:02:15.404Z,98.6
2017-12-24T04:03:24.005Z,98.22
2017-12-24T04:04:32.606Z,98.5
2017-12-24T04:05:41.211Z,98.98
2017-12-24T04:06:49.813Z,98.6
2017-12-24T04:07:58.427Z,98.88
2017-12-24T04:09:07.024Z,99.08
2017-12-24T04:10:15.879Z,99.17
2017-12-24T04:11:24.499Z,98.79
2017-12-24T04:12:33.100Z,99.17
2017-12-24T04:13:41.696Z,99.27
2017-12-24T04:14:50.307Z,99.17
2017-12-24T04:15:58.912Z,98.79
2017-12-24T04:17:07.763Z,98.88
2017-12-24T04:18:16.376Z,99.27
2017-12-24T04:19:24.985Z,98.98
2017-12-24T04:20:33.586Z,99.17
2017-12-24T04:21:42.188Z,99.17
2017-12-24T04:22:50.781Z,98.79
2017-12-24T04:23:59.397Z,99.03
2017-12-24T04:25:07.998Z,98.98
2017-12-24T04:26:16.591Z,99.17
2017-12-24T04:27:25.204Z,98.88
2017-12-24T04:28:33.817Z,98.79
2017-12-24T04:29:42.407Z,98.98
2017-12-24T04:30:51.011Z,98.98
2017-12-24T04:31:59.625Z,99.17
2017-12-24T04:33:08.221Z,99.08
2017-12-24T04:34:16.829Z,99.17
2017-12-24T04:35:25.689Z,99.17
2017-12-24T04:36:34.299Z,98.6
2017-12-24T04:37:42.909Z,98.98
2017-12-24T04:38:51.504Z,98.6
2017-12-24T04:40:00.110Z,99.08
2017-12-24T04:41:08.721Z,98.88
2017-12-24T04:42:17.317Z,98.6
2017-12-24T04:43:26.177Z,99.17
2017-12-24T04:44:34.793Z,98.88
2017-12-24T04:45:43.391Z,98.79
2017-12-24T04:46:51.992Z,99.08
2017-12-24T04:48:00.606Z,99.27
2017-12-24T04:49:09.206Z,99.03
2017-12-24T04:50:17.819Z,99.27
2017-12-24T04:51:26.418Z,99.17
2017-12-24T04:52:35.022Z,98.98
2017-12-24T04:53:43.635Z,98.98
2017-12-24T04:54:52.234Z,98.98
2017-12-24T04:56:00.836Z,98.79
2017-12-24T04:57:09.452Z,99.17
2017-12-24T04:58:18.053Z,99.36
2017-12-24T04:59:26.643Z,98.98
2017-12-24T05:00:35.261Z,99.41
2017-12-24T05:01:44.124Z,99.36
2017-12-24T05:02:52.718Z,99.27
2017-12-24T05:04:01.330Z,99.46
2017-12-24T05:05:09.927Z,99.46
2017-12-24T05:06:18.545Z,99.74
2017-12-24T05:07:27.149Z,99.84
2017-12-24T05:08:35.744Z,99.55
2017-12-24T05:09:44.618Z,99.65
2017-12-24T05:10:53.226Z,99.46
2017-12-24T05:12:01.818Z,99.65
2017-12-24T05:13:10.430Z,99.74
2017-12-24T05:14:19.044Z,99.93
2017-12-24T05:15:27.638Z,99.55
2017-12-24T05:16:36.242Z,99.74
2017-12-24T05:17:44.855Z,99.99
2017-12-24T05:18:53.452Z,99.84
2017-12-24T05:20:02.054Z,99.99
2017-12-24T05:21:10.670Z,99.55
2017-12-24T05:22:19.266Z,99.74
2017-12-24T05:23:27.864Z,99.93
2017-12-24T05:24:36.486Z,99.99
2017-12-24T05:25:45.089Z,99.99
2017-12-24T05:26:53.681Z,99.55
2017-12-24T05:28:02.297Z,99.55
2017-12-24T05:29:11.234Z,99.65
2017-12-24T05:30:19.826Z,99.84
2017-12-24T05:31:28.435Z,99.93
2017-12-24T05:32:37.042Z,99.55
2017-12-24T05:33:45.649Z,99.65
2017-12-24T05:34:54.253Z,99.65
2017-12-24T05:36:02.843Z,99.93
2017-12-24T05:37:11.461Z,99.36
2017-12-24T05:38:20.069Z,99.46
2017-12-24T05:39:28.666Z,99.99
2017-12-24T05:40:37.277Z,99.84
2017-12-24T05:41:45.890Z,99.46
2017-12-24T05:42:54.485Z,99.84
2017-12-24T05:44:03.093Z,99.55
2017-12-24T05:45:11.709Z,99.65
2017-12-24T05:46:20.304Z,99.46
2017-12-24T05:47:28.907Z,99.65
2017-12-24T05:48:37.510Z,99.99
2017-12-24T05:49:46.122Z,99.99
2017-12-24T05:50:54.733Z,99.74
2017-12-24T05:52:03.324Z,99.36
2017-12-24T05:53:11.934Z,99.99
2017-12-24T05:54:20.555Z,99.55
2017-12-24T05:55:29.462Z,99.74
2017-12-24T05:56:38.061Z,99.84
2017-12-24T05:57:46.680Z,99.55
2017-12-24T05:58:55.274Z,99.46
2017-12-24T06:00:03.875Z,99.74
2017-12-24T06:01:12.486Z,99.36
2017-12-24T06:02:21.091Z,99.46
2017-12-24T06:03:29.707Z,99.36
2017-12-24T06:04:38.610Z,99.65
2017-12-24T06:05:47.213Z,99.84
2017-12-24T06:06:56.087Z,99.17
2017-12-24T06:08:04.685Z,99.74
2017-12-24T06:09:13.282Z,99.36
2017-12-24T06:10:21.897Z,99.36
2017-12-24T06:11:30.499Z,99.17
2017-12-24T06:12:39.091Z,99.74
2017-12-24T06:13:47.709Z,99.36
2017-12-24T06:14:56.315Z,98.88
2017-12-24T06:16:04.911Z,99.17
2017-12-24T06:17:13.556Z,98.98
2017-12-24T06:18:22.119Z,99.65
2017-12-24T06:19:30.738Z,99.46
2017-12-24T06:20:39.341Z,99.74
2017-12-24T06:21:47.936Z,98.98
2017-12-24T06:22:56.549Z,99.36
2017-12-24T06:24:05.157Z,99.08
2017-12-24T06:25:13.754Z,99.08
2017-12-24T06:26:22.367Z,99.65
2017-12-24T06:27:30.983Z,99.55
2017-12-24T06:28:39.572Z,99.93
2017-12-24T06:29:48.180Z,99.27
2017-12-24T06:30:56.795Z,99.84
2017-12-24T06:32:05.390Z,99.74
2017-12-24T06:33:13.999Z,99.74
2017-12-24T06:34:22.591Z,99.08
2017-12-24T06:35:31.200Z,98.98
2017-12-24T06:36:39.808Z,99.17
2017-12-24T06:37:48.403Z,98.79
2017-12-24T06:38:57.012Z,99.27
2017-12-24T06:40:05.628Z,99.08
2017-12-24T06:41:14.475Z,98.98
2017-12-24T06:42:23.075Z,99.27
2017-12-24T06:43:31.696Z,99.17
2017-12-24T06:44:40.556Z,98.98
2017-12-24T06:45:49.153Z,99.36
2017-12-24T06:46:57.756Z,99.17
2017-12-24T06:48:06.367Z,98.98
2017-12-24T06:49:14.982Z,99.17
2017-12-24T06:50:23.577Z,98.79
2017-12-24T06:51:32.182Z,98.88
2017-12-24T06:52:40.796Z,99.27
2017-12-24T06:53:49.398Z,99.55
2017-12-24T06:54:57.995Z,99.27
2017-12-24T06:56:06.872Z,99.46
2017-12-24T06:57:15.476Z,99.55
2017-12-24T06:58:24.071Z,99.36
2017-12-24T06:59:32.689Z,99.93
2017-12-24T07:00:41.293Z,99.17
2017-12-24T07:01:49.905Z,98.79
2017-12-24T07:02:58.502Z,99.27
2017-12-24T07:04:07.100Z,99.17
2017-12-24T07:05:15.716Z,98.88
2017-12-24T07:06:24.576Z,98.69
2017-12-24T07:07:33.170Z,98.79
2017-12-24T07:08:41.787Z,98.5
2017-12-24T07:09:50.393Z,98.88
2017-12-24T07:10:58.985Z,98.79
2017-12-24T07:12:07.599Z,99.27
2017-12-24T07:13:16.246Z,98.98
2017-12-24T07:14:24.809Z,98.88
2017-12-24T07:15:33.417Z,98.98
2017-12-24T07:16:42.034Z,99.65
2017-12-24T07:17:50.624Z,99.17
2017-12-24T07:18:59.226Z,98.88
2017-12-24T07:20:07.842Z,99.36
2017-12-24T07:21:16.439Z,98.98
2017-12-24T07:22:25.044Z,98.98
2017-12-24T07:23:33.916Z,99.46
2017-12-24T07:24:42.520Z,99.74
2017-12-24T07:25:51.115Z,99.65
2017-12-24T07:26:59.728Z,99.65
2017-12-24T07:28:08.335Z,99.36
2017-12-24T07:29:16.927Z,98.88
2017-12-24T07:30:25.542Z,99.17
2017-12-24T07:31:34.138Z,99.74
2017-12-24T07:32:42.755Z,98.88
2017-12-24T07:33:51.361Z,98.88
2017-12-24T07:34:59.959Z,98.69
2017-12-24T07:36:08.831Z,99.17
2017-12-24T07:37:17.438Z,98.98
2017-12-24T07:38:26.034Z,99.17
2017-12-24T07:39:34.651Z,98.88
2017-12-24T07:40:43.263Z,98.98
2017-12-24T07:41:51.856Z,99.17
2017-12-24T07:43:00.468Z,98.69
2017-12-24T07:44:09.081Z,99.17
2017-12-24T07:45:17.680Z,99.17
2017-12-24T07:46:26.288Z,98.98
2017-12-24T07:47:34.881Z,99.08
2017-12-24T07:48:43.495Z,99.65
2017-12-24T07:49:52.106Z,99.74
2017-12-24T07:51:00.705Z,99.17
2017-12-24T07:52:09.568Z,99.65
2017-12-24T07:53:18.184Z,99.55
2017-12-24T07:54:26.777Z,99.55
2017-12-24T07:55:35.378Z,99.46
2017-12-24T07:56:43.991Z,99.99
2017-12-24T07:57:52.593Z,99.99
2017-12-24T07:59:01.451Z,99.99
2017-12-24T08:00:10.052Z,99.99
2017-12-24T08:01:18.660Z,99.99
2017-12-24T08:02:27.276Z,99.55
2017-12-24T08:03:35.872Z,99.99
2017-12-24T08:04:44.527Z,99.99
2017-12-24T08:05:53.088Z,99.74
2017-12-24T08:07:01.687Z,99.93
2017-12-24T08:08:10.286Z,99.65
2017-12-24T08:09:19.165Z,99.99
2017-12-24T08:10:27.768Z,99.36
2017-12-24T08:11:36.364Z,99.74
2017-12-24T08:12:44.981Z,99.17
2017-12-24T08:13:53.589Z,99.84
2017-12-24T08:15:02.195Z,99.74
2017-12-24T08:16:11.048Z,99.93
2017-12-24T08:17:19.648Z,99.84
2017-12-24T08:18:28.263Z,99.27
2017-12-24T08:19:36.866Z,99.74
2017-12-24T08:20:45.462Z,99.84
2017-12-24T08:21:54.076Z,99.65
2017-12-24T08:23:02.682Z,99.84
2017-12-24T08:24:11.282Z,99.84
2017-12-24T08:25:19.893Z,99.46
2017-12-24T08:26:28.505Z,99.74
2017-12-24T08:27:37.103Z,99.99
2017-12-24T08:28:45.702Z,99.99
2017-12-24T08:29:54.303Z,99.99
2017-12-24T08:31:02.922Z,99.99
2017-12-24T08:32:11.528Z,99.65
2017-12-24T08:33:20.121Z,99.99
2017-12-24T08:34:28.733Z,99.99
2017-12-24T08:35:37.345Z,99.93
2017-12-24T08:36:45.939Z,99.99
2017-12-24T08:37:54.549Z,99.99
2017-12-24T08:39:03.421Z,99.55
2017-12-24T08:40:12.018Z,99.55
2017-12-24T08:41:20.616Z,99.74
2017-12-24T08:42:29.238Z,99.74
2017-12-24T08:43:37.835Z,99.65
2017-12-24T08:44:46.449Z,99.55
2017-12-24T08:45:55.047Z,99.74
2017-12-24T08:47:03.652Z,99.65
2017-12-24T08:48:12.269Z,99.84
2017-12-24T08:49:20.868Z,99.99
2017-12-24T08:50:29.470Z,99.99
2017-12-24T08:51:38.085Z,99.84
2017-12-24T08:52:46.690Z,99.65
2017-12-24T08:53:55.289Z,99.99
2017-12-24T08:55:03.903Z,99.99
2017-12-24T08:56:12.503Z,99.84
2017-12-24T08:57:21.095Z,99.99
2017-12-24T08:58:29.709Z,99.99
2017-12-24T08:59:38.312Z,99.99
2017-12-24T09:00:46.925Z,99.99
2017-12-24T09:01:55.525Z,99.74
2017-12-24T09:03:04.124Z,99.65
2017-12-24T09:04:12.746Z,99.84
2017-12-24T09:05:21.343Z,99.99
2017-12-24T09:06:29.941Z,99.65
2017-12-24T09:07:38.814Z,99.93
2017-12-24T09:08:47.420Z,99.55
2017-12-24T09:09:56.279Z,99.65
2017-12-24T09:11:04.888Z,99.99
2017-12-24T09:12:13.768Z,99.99
2017-12-24T09:13:22.360Z,99.99
2017-12-24T09:14:30.965Z,99.84
2017-12-24T09:15:39.581Z,99.74
2017-12-24T09:16:48.176Z,99.65
2017-12-24T09:17:57.114Z,99.74
2017-12-24T09:19:05.688Z,99.65
2017-12-24T09:20:14.278Z,99.93
2017-12-24T09:21:22.873Z,99.65
2017-12-24T09:22:31.490Z,99.36
2017-12-24T09:23:40.089Z,99.36
2017-12-24T09:24:48.682Z,99.46
2017-12-24T09:25:57.303Z,99.99
2017-12-24T09:27:05.912Z,99.74
2017-12-24T09:28:14.516Z,99.74
2017-12-24T09:29:23.115Z,99.65
2017-12-24T09:30:31.713Z,99.99
2017-12-24T09:31:40.328Z,99.99
2017-12-24T09:32:49.201Z,99.93
2017-12-24T09:33:57.794Z,99.93
2017-12-24T09:35:06.414Z,99.93
2017-12-24T09:36:15.012Z,99.74
2017-12-24T09:37:23.610Z,99.46
2017-12-24T09:38:32.218Z,99.65
2017-12-24T09:39:41.092Z,99.55
2017-12-24T09:40:49.688Z,99.99
2017-12-24T09:41:58.294Z,99.65
2017-12-24T09:43:06.896Z,99.79
2017-12-24T09:44:15.511Z,99.74
2017-12-24T09:45:24.115Z,99.6
2017-12-24T09:46:32.711Z,99.22
2017-12-24T09:47:41.320Z,99.51
2017-12-24T09:48:49.932Z,99.51
2017-12-24T09:49:58.788Z,99.69
2017-12-24T09:51:07.394Z,99.13
2017-12-24T09:52:16.273Z,98.84
2017-12-24T09:53:24.868Z,99.41
2017-12-24T09:54:33.473Z,99.03
2017-12-24T09:55:42.096Z,98.74
2017-12-24T09:56:50.690Z,99.03
2017-12-24T09:57:59.302Z,98.94
2017-12-24T09:59:08.168Z,98.79
2017-12-24T10:00:17.029Z,99.22
2017-12-24T10:01:25.645Z,99.98
2017-12-24T10:02:34.500Z,99.69
2017-12-24T10:03:43.105Z,98.84
2017-12-24T10:04:51.981Z,98.94
2017-12-24T10:06:00.581Z,98.94
2017-12-24T10:07:09.183Z,99.32
2017-12-24T10:08:17.800Z,99.79
2017-12-24T10:09:26.403Z,99.41
2017-12-24T10:10:34.996Z,99.79
2017-12-24T10:11:43.876Z,99.41
2017-12-24T10:12:52.478Z,99.6
2017-12-24T10:14:01.095Z,99.6
2017-12-24T10:15:09.694Z,99.69
2017-12-24T10:16:18.292Z,99.79
2017-12-24T10:17:26.906Z,99.69
2017-12-24T10:18:35.771Z,99.98
2017-12-24T10:19:44.366Z,99.99
2017-12-24T10:20:52.983Z,99.36
2017-12-24T10:22:01.597Z,99.84
2017-12-24T10:23:10.191Z,99.98
2017-12-24T10:24:18.803Z,99.99
2017-12-24T10:25:27.413Z,99.99
2017-12-24T10:26:36.019Z,99.99
2017-12-24T10:27:44.623Z,99.99
2017-12-24T10:28:53.215Z,99.99
2017-12-24T10:30:01.832Z,99.99
2017-12-24T10:31:10.703Z,99.99
2017-12-24T10:32:19.300Z,99.99
2017-12-24T10:33:27.913Z,99.99
2017-12-24T10:34:36.529Z,99.99
2017-12-24T10:35:45.127Z,99.99
2017-12-24T10:36:53.733Z,99.99
2017-12-24T10:38:02.349Z,99.99
2017-12-24T10:39:10.944Z,99.99
2017-12-24T10:40:19.546Z,99.99
2017-12-24T10:41:28.146Z,99.99
2017-12-24T10:42:36.760Z,99.99
2017-12-24T10:43:45.373Z,99.99
2017-12-24T10:44:54.226Z,99.99
2017-12-24T10:46:02.831Z,99.99
2017-12-24T10:47:11.446Z,99.99
2017-12-24T10:48:20.303Z,99.99
2017-12-24T10:49:28.904Z,99.99
2017-12-24T10:50:37.523Z,99.99
2017-12-24T10:51:46.122Z,99.99
2017-12-24T10:52:54.725Z,99.99
2017-12-24T10:54:03.597Z,99.99
2017-12-24T10:55:12.200Z,99.99
2017-12-24T10:56:20.815Z,99.99
2017-12-24T10:57:29.409Z,99.99
2017-12-24T10:58:38.012Z,99.99
2017-12-24T10:59:46.625Z,99.99
2017-12-24T11:00:55.229Z,99.99
2017-12-24T11:02:03.830Z,99.99
2017-12-24T11:03:12.444Z,99.99
2017-12-24T11:04:21.048Z,99.99
2017-12-24T11:05:29.640Z,99.99
2017-12-24T11:06:38.258Z,99.99
2017-12-24T11:07:46.864Z,99.99
2017-12-24T11:08:55.495Z,99.99
2017-12-24T11:10:04.070Z,99.99
2017-12-24T11:11:12.686Z,99.99
2017-12-24T11:12:21.279Z,99.99
2017-12-24T11:13:29.882Z,99.99
2017-12-24T11:14:38.500Z,99.99
2017-12-24T11:15:47.095Z,99.99
2017-12-24T11:16:55.702Z,99.99
2017-12-24T11:18:04.317Z,99.99
2017-12-24T11:19:12.913Z,99.99
2017-12-24T11:20:21.511Z,99.99
2017-12-24T11:21:30.129Z,99.99
2017-12-24T11:22:38.730Z,99.99
2017-12-24T11:23:47.328Z,99.99
2017-12-24T11:24:55.940Z,99.99
2017-12-24T11:26:04.543Z,99.99
2017-12-24T11:27:13.164Z,99.99
2017-12-24T11:28:21.763Z,99.99
2017-12-24T11:29:30.363Z,99.99
2017-12-24T11:30:39.016Z,99.99
2017-12-24T11:31:47.579Z,99.99
2017-12-24T11:32:56.434Z,99.99
2017-12-24T11:34:05.050Z,99.99
2017-12-24T11:35:13.659Z,99.99
2017-12-24T11:36:22.255Z,99.99
2017-12-24T11:37:30.866Z,99.99
2017-12-24T11:38:39.475Z,99.99
2017-12-24T11:39:48.080Z,99.99
2017-12-24T11:40:56.684Z,99.99
2017-12-24T11:42:05.275Z,99.99
2017-12-24T11:43:13.892Z,99.99
2017-12-24T11:44:22.764Z,99.99
2017-12-24T11:45:31.362Z,99.99
2017-12-24T11:46:39.972Z,99.99
2017-12-24T11:47:48.633Z,99.99
2017-12-24T11:48:57.185Z,99.99
2017-12-24T11:50:05.783Z,99.99
2017-12-24T11:51:14.397Z,99.99
2017-12-24T11:52:22.998Z,99.99
2017-12-24T11:53:31.601Z,99.99
2017-12-24T11:54:40.202Z,99.99
2017-12-24T11:55:48.817Z,99.99
2017-12-24T11:56:57.428Z,99.99
2017-12-24T11:58:06.025Z,99.99
2017-12-24T11:59:14.902Z,99.99
2017-12-24T12:00:23.774Z,99.99
2017-12-24T12:01:32.374Z,99.99
2017-12-24T12:02:40.980Z,99.99
2017-12-24T12:03:49.596Z,99.99
2017-12-24T12:04:58.196Z,99.99
2017-12-24T12:06:06.799Z,99.99
2017-12-24T12:07:15.412Z,99.99
2017-12-24T12:08:24.016Z,99.99
2017-12-24T12:09:32.625Z,99.99
2017-12-24T12:10:41.220Z,99.99
2017-12-24T12:11:49.829Z,99.99
2017-12-24T12:12:58.442Z,99.99
2017-12-24T12:14:07.040Z,99.99
2017-12-24T12:15:15.640Z,99.99
2017-12-24T12:16:24.255Z,99.99
2017-12-24T12:17:32.855Z,99.99
2017-12-24T12:18:41.453Z,99.99
2017-12-24T12:19:50.066Z,99.99
2017-12-24T12:20:58.677Z,99.99
2017-12-24T12:22:07.268Z,99.99
2017-12-24T12:23:15.885Z,99.99
2017-12-24T12:24:24.483Z,99.99
2017-12-24T12:25:33.095Z,99.99
2017-12-24T12:26:41.695Z,99.99
2017-12-24T12:27:50.292Z,99.99
2017-12-24T12:28:58.904Z,99.99
2017-12-24T12:30:07.515Z,99.99
2017-12-24T12:31:16.105Z,99.99
2017-12-24T12:32:24.718Z,99.99
2017-12-24T12:33:33.326Z,99.99
2017-12-24T12:34:41.923Z,99.99
2017-12-24T12:35:50.527Z,99.99
2017-12-24T12:36:59.144Z,99.99
2017-12-24T12:38:07.741Z,99.99
2017-12-24T12:39:16.349Z,99.99
2017-12-24T12:40:24.943Z,99.99
2017-12-24T12:41:33.554Z,99.99
2017-12-24T12:42:42.167Z,99.99
2017-12-24T12:43:50.759Z,99.99
2017-12-24T12:44:59.369Z,99.99
2017-12-24T12:46:08.241Z,99.99
2017-12-24T12:47:16.839Z,99.99
2017-12-24T12:48:25.442Z,99.99
2017-12-24T12:49:34.058Z,99.99
2017-12-24T12:50:42.655Z,99.99
2017-12-24T12:51:51.252Z,99.99
2017-12-24T12:52:59.864Z,99.99
2017-12-24T12:54:08.467Z,99.99
2017-12-24T12:55:17.084Z,99.99
2017-12-24T12:56:25.680Z,99.99
2017-12-24T12:57:34.284Z,99.99
2017-12-24T12:58:43.170Z,99.99
2017-12-24T12:59:51.768Z,99.99
2017-12-24T13:01:00.370Z,99.99
2017-12-24T13:02:08.989Z,99.99
2017-12-24T13:03:17.594Z,99.99
2017-12-24T13:04:26.185Z,99.99
2017-12-24T13:05:34.804Z,99.99
2017-12-24T13:06:43.410Z,99.99
2017-12-24T13:07:52.007Z,99.99
2017-12-24T13:09:00.619Z,99.99
2017-12-24T13:10:09.230Z,99.99
2017-12-24T13:11:17.823Z,99.99
2017-12-24T13:12:26.428Z,99.99
2017-12-24T13:13:35.046Z,99.99
2017-12-24T13:14:43.643Z,99.99
2017-12-24T13:15:52.250Z,99.99
2017-12-24T13:17:00.861Z,99.99
2017-12-24T13:18:09.459Z,99.99
2017-12-24T13:19:18.057Z,99.99
2017-12-24T13:20:26.684Z,99.99
2017-12-24T13:21:35.279Z,99.99
2017-12-24T13:22:43.889Z,99.99
2017-12-24T13:23:52.486Z,99.99
2017-12-24T13:25:01.087Z,99.99
2017-12-24T13:26:09.704Z,99.99
2017-12-24T13:27:18.302Z,99.99
2017-12-24T13:28:26.898Z,99.99
2017-12-24T13:29:35.513Z,99.99
2017-12-24T13:30:44.116Z,99.99
2017-12-24T13:31:52.714Z,99.99
2017-12-24T13:33:01.331Z,99.99
2017-12-24T13:34:10.202Z,99.99
2017-12-24T13:35:18.796Z,99.99
2017-12-24T13:36:27.407Z,99.99
2017-12-24T13:37:36.006Z,99.99
2017-12-24T13:38:44.625Z,99.99
2017-12-24T13:39:53.282Z,99.99
2017-12-24T13:41:01.822Z,99.99
2017-12-24T13:42:10.443Z,99.99
2017-12-24T13:43:19.051Z,99.99
2017-12-24T13:44:27.648Z,99.99
2017-12-24T13:45:36.273Z,99.99
2017-12-24T13:46:45.150Z,99.99
2017-12-24T13:47:53.737Z,99.99
2017-12-24T13:49:02.346Z,99.99
2017-12-24T13:50:10.963Z,99.99
2017-12-24T13:51:19.562Z,99.99
2017-12-24T13:52:28.167Z,99.99
2017-12-24T13:53:36.764Z,99.99
2017-12-24T13:54:45.375Z,99.99
2017-12-24T13:55:53.992Z,99.99
2017-12-24T13:57:03.098Z,99.99
2017-12-24T13:58:11.710Z,99.99
2017-12-24T13:59:20.346Z,99.99
2017-12-24T14:00:28.932Z,99.99
2017-12-24T14:01:37.533Z,99.99
2017-12-24T14:02:46.154Z,99.99
2017-12-24T14:03:54.750Z,99.99
2017-12-24T14:05:03.345Z,99.99
2017-12-24T14:06:12.272Z,99.99
2017-12-24T14:07:21.137Z,99.99
2017-12-24T14:08:29.750Z,99.99
2017-12-24T14:09:38.349Z,99.99
2017-12-24T14:10:47.206Z,99.99
2017-12-24T14:11:55.823Z,99.99
2017-12-24T14:13:04.426Z,99.99
2017-12-24T14:14:13.021Z,99.99
2017-12-24T14:15:21.636Z,99.99
2017-12-24T14:16:30.239Z,99.99
2017-12-24T14:17:38.833Z,99.99
2017-12-24T14:18:47.451Z,99.99
2017-12-24T14:19:56.060Z,99.99
2017-12-24T14:21:04.667Z,99.99
2017-12-24T14:22:13.264Z,99.99
2017-12-24T14:23:21.862Z,99.99
2017-12-24T14:24:30.475Z,99.99
2017-12-24T14:25:39.079Z,99.99
2017-12-24T14:26:47.671Z,99.99
2017-12-24T14:27:56.289Z,99.99
2017-12-24T14:29:04.897Z,99.99
2017-12-24T14:30:13.493Z,99.99
2017-12-24T14:31:22.104Z,99.99
2017-12-24T14:32:30.724Z,99.99
2017-12-24T14:33:39.319Z,99.99
2017-12-24T14:34:47.924Z,99.99
2017-12-24T14:35:56.523Z,99.99
2017-12-24T14:37:05.400Z,99.99
2017-12-24T14:38:14.014Z,99.99
2017-12-24T14:39:22.599Z,99.99
2017-12-24T14:40:31.215Z,99.99
2017-12-24T14:41:39.828Z,99.99
2017-12-24T14:42:48.422Z,99.99
2017-12-24T14:43:57.028Z,99.99
2017-12-24T14:45:05.646Z,99.99